Time,TemperatureF,DewpointF,PressureIn,WindDirection,WindDirectionDegrees,WindSpeedMPH,WindSpeedGustMPH,Humidity,HourlyPrecipIn,Conditions,Clouds,dailyrainin,SolarRadiationWatts/m^2,SoftwareType,DateUTC
2013-03-13 00:02:00,40.0,29.0,-100.00,SSE,164,8.0,13.0,64,0.00,,,0.00,0.000000,,2013-03-13 06:02:00,
2013-03-13 00:12:00,40.0,29.0,-100.00,SSE,164,8.0,13.0,64,0.00,,,0.00,0.000000,,2013-03-13 06:12:00,
2013-03-13 00:33:00,42.0,28.0,-100.00,SSE,147,8.0,12.0,58,0.00,,,0.00,0.000000,,2013-03-13 06:33:00,
2013-03-13 00:42:00,42.0,28.0,-100.00,SSE,147,8.0,12.0,58,0.00,,,0.00,0.000000,,2013-03-13 06:42:00,
2013-03-13 00:52:00,42.0,28.0,-100.00,SSE,147,8.0,12.0,58,0.00,,,0.00,0.000000,,2013-03-13 06:52:00,
2013-03-13 01:02:00,42.0,28.0,-100.00,SSE,147,8.0,12.0,58,0.00,,,0.00,0.000000,,2013-03-13 07:02:00,
2013-03-13 01:12:00,42.0,28.0,-100.00,SSE,147,8.0,12.0,58,0.00,,,0.00,0.000000,,2013-03-13 07:12:00,
2013-03-13 01:43:00,43.0,28.0,-100.00,SE,141,8.0,13.0,56,0.00,,,0.00,0.000000,,2013-03-13 07:43:00,
2013-03-13 01:52:00,43.0,28.0,-100.00,SE,141,8.0,13.0,56,0.00,,,0.00,0.000000,,2013-03-13 07:52:00,
2013-03-13 02:03:00,43.0,28.0,-100.00,SE,141,8.0,13.0,56,0.00,,,0.00,0.000000,,2013-03-13 08:03:00,
2013-03-13 02:12:00,43.0,28.0,-100.00,SE,141,8.0,13.0,56,0.00,,,0.00,0.000000,,2013-03-13 08:12:00,
2013-03-13 02:43:00,43.0,28.0,-100.00,SSE,150,9.0,15.0,55,0.00,,,-99.99,0.000000,,2013-03-13 08:43:00,
2013-03-13 02:53:00,43.0,28.0,-100.00,SSE,150,9.0,15.0,55,0.00,,,-99.99,0.000000,,2013-03-13 08:53:00,
2013-03-13 03:02:00,43.0,28.0,-100.00,SSE,150,9.0,15.0,55,0.00,,,-99.99,0.000000,,2013-03-13 09:02:00,
2013-03-13 03:12:00,43.0,28.0,-100.00,SSE,150,9.0,15.0,55,0.00,,,-99.99,0.000000,,2013-03-13 09:12:00,
2013-03-13 03:42:00,42.0,27.0,-100.00,ESE,123,9.0,17.0,55,0.00,,,0.00,0.000000,,2013-03-13 09:42:00,
2013-03-13 03:52:00,42.0,27.0,-100.00,ESE,123,9.0,17.0,55,0.00,,,0.00,0.000000,,2013-03-13 09:52:00,
2013-03-13 04:01:00,42.0,27.0,-100.00,ESE,123,9.0,17.0,55,0.00,,,0.00,0.000000,,2013-03-13 10:01:00,
2013-03-13 04:11:00,42.0,27.0,-100.00,ESE,123,9.0,17.0,55,0.00,,,0.00,0.000000,,2013-03-13 10:11:00,
2013-03-13 04:42:00,39.0,25.0,-100.00,SE,126,8.0,12.0,56,0.00,,,0.00,0.000000,,2013-03-13 10:42:00,
2013-03-13 04:52:00,39.0,25.0,-100.00,SE,126,8.0,12.0,56,0.00,,,0.00,0.000000,,2013-03-13 10:52:00,
2013-03-13 05:02:00,39.0,25.0,-100.00,SE,126,8.0,12.0,56,0.00,,,0.00,0.000000,,2013-03-13 11:02:00,
2013-03-13 05:12:00,39.0,25.0,-100.00,SE,126,8.0,12.0,56,0.00,,,0.00,0.000000,,2013-03-13 11:12:00,
2013-03-13 05:32:00,41.0,27.0,-100.00,SE,139,8.0,13.0,57,0.00,,,0.00,0.000000,,2013-03-13 11:32:00,
2013-03-13 05:42:00,41.0,27.0,-100.00,SE,139,8.0,13.0,57,0.00,,,0.00,0.000000,,2013-03-13 11:42:00,
2013-03-13 05:52:00,41.0,27.0,-100.00,SE,139,8.0,13.0,57,0.00,,,0.00,0.000000,,2013-03-13 11:52:00,
2013-03-13 06:02:00,41.0,27.0,-100.00,SE,139,8.0,13.0,57,0.00,,,0.00,0.000000,,2013-03-13 12:02:00,
2013-03-13 06:12:00,41.0,27.0,-100.00,SE,139,8.0,13.0,57,0.00,,,0.00,0.000000,,2013-03-13 12:12:00,
2013-03-13 06:42:00,42.0,26.0,-100.00,SE,129,9.0,13.0,53,0.00,,,0.00,0.000000,,2013-03-13 12:42:00,
2013-03-13 06:53:00,42.0,26.0,-100.00,SE,129,9.0,13.0,53,0.00,,,0.00,0.000000,,2013-03-13 12:53:00,
2013-03-13 07:02:00,42.0,26.0,-100.00,SE,129,9.0,13.0,53,0.00,,,0.00,0.000000,,2013-03-13 13:02:00,
2013-03-13 07:11:00,42.0,26.0,-100.00,SE,129,9.0,13.0,53,0.00,,,0.00,0.000000,,2013-03-13 13:11:00,
2013-03-13 07:33:00,38.0,25.0,-100.00,South,182,5.0,12.0,59,0.00,,,0.00,0.000000,,2013-03-13 13:33:00,
2013-03-13 07:43:00,38.0,25.0,-100.00,South,182,5.0,12.0,59,0.00,,,0.00,0.000000,,2013-03-13 13:43:00,
2013-03-13 07:52:00,38.0,25.0,-100.00,South,182,5.0,12.0,59,0.00,,,0.00,0.000000,,2013-03-13 13:52:00,
2013-03-13 08:02:00,38.0,25.0,-100.00,South,182,5.0,12.0,59,0.00,,,0.00,0.000000,,2013-03-13 14:02:00,
2013-03-13 08:11:00,38.0,25.0,-100.00,South,182,5.0,12.0,59,0.00,,,0.00,0.000000,,2013-03-13 14:11:00,
2013-03-13 08:52:00,40.0,26.0,-100.00,SSE,154,7.0,10.0,56,0.00,,,0.00,0.000000,,2013-03-13 14:52:00,
2013-03-13 09:02:00,40.0,26.0,-100.00,SSE,154,7.0,10.0,56,0.00,,,0.00,0.000000,,2013-03-13 15:02:00,
2013-03-13 09:11:00,40.0,26.0,-100.00,SSE,154,7.0,10.0,56,0.00,,,0.00,0.000000,,2013-03-13 15:11:00,
2013-03-13 09:43:00,44.0,28.0,-100.00,SE,140,6.0,10.0,53,0.00,,,0.00,0.000000,,2013-03-13 15:43:00,
2013-03-13 09:52:00,44.0,28.0,-100.00,SE,140,6.0,10.0,53,0.00,,,0.00,0.000000,,2013-03-13 15:52:00,
2013-03-13 10:02:00,44.0,28.0,-100.00,SE,140,6.0,10.0,53,0.00,,,0.00,0.000000,,2013-03-13 16:02:00,
2013-03-13 10:12:00,44.0,28.0,-100.00,SE,140,6.0,10.0,53,0.00,,,0.00,0.000000,,2013-03-13 16:12:00,
2013-03-13 10:42:00,48.0,28.0,-100.00,SSE,149,9.0,14.0,45,0.00,,,0.00,0.000000,,2013-03-13 16:42:00,
2013-03-13 10:52:00,48.0,28.0,-100.00,SSE,149,9.0,14.0,45,0.00,,,0.00,0.000000,,2013-03-13 16:52:00,
2013-03-13 11:02:00,48.0,28.0,-100.00,SSE,149,9.0,14.0,45,0.00,,,0.00,0.000000,,2013-03-13 17:02:00,
2013-03-13 11:11:00,48.0,28.0,-100.00,SSE,149,9.0,14.0,45,0.00,,,0.00,0.000000,,2013-03-13 17:11:00,
2013-03-13 11:42:00,49.0,26.0,-100.00,SE,124,5.0,13.0,40,0.00,,,0.00,0.000000,,2013-03-13 17:42:00,
2013-03-13 11:53:00,49.0,26.0,-100.00,SE,124,5.0,13.0,40,0.00,,,0.00,0.000000,,2013-03-13 17:53:00,
2013-03-13 12:02:00,49.0,26.0,-100.00,SE,124,5.0,13.0,40,0.00,,,0.00,0.000000,,2013-03-13 18:02:00,
2013-03-13 12:12:00,49.0,26.0,-100.00,SE,124,5.0,13.0,40,0.00,,,0.00,0.000000,,2013-03-13 18:12:00,
2013-03-13 12:42:00,50.0,23.0,-100.00,SE,137,7.0,15.0,35,0.00,,,0.00,0.000000,,2013-03-13 18:42:00,
2013-03-13 12:52:00,50.0,23.0,-100.00,SE,137,7.0,15.0,35,0.00,,,0.00,0.000000,,2013-03-13 18:52:00,
2013-03-13 13:02:00,50.0,23.0,-100.00,SE,137,7.0,15.0,35,0.00,,,0.00,0.000000,,2013-03-13 19:02:00,
2013-03-13 13:12:00,50.0,23.0,-100.00,SE,137,7.0,15.0,35,0.00,,,0.00,0.000000,,2013-03-13 19:12:00,
2013-03-13 13:43:00,50.0,24.0,-100.00,South,171,8.0,13.0,36,0.00,,,0.00,0.000000,,2013-03-13 19:43:00,
2013-03-13 13:53:00,50.0,24.0,-100.00,South,171,8.0,13.0,36,0.00,,,0.00,0.000000,,2013-03-13 19:53:00,
2013-03-13 14:02:00,50.0,24.0,-100.00,South,171,8.0,13.0,36,0.00,,,0.00,0.000000,,2013-03-13 20:02:00,
2013-03-13 14:11:00,50.0,24.0,-100.00,South,171,8.0,13.0,36,0.00,,,0.00,0.000000,,2013-03-13 20:11:00,
2013-03-13 14:32:00,51.0,28.0,-100.00,SSW,199,5.0,12.0,40,0.00,,,0.00,0.000000,,2013-03-13 20:32:00,
2013-03-13 14:42:00,51.0,28.0,-100.00,SSW,199,5.0,12.0,40,0.00,,,0.00,0.000000,,2013-03-13 20:42:00,
2013-03-13 14:52:00,51.0,28.0,-100.00,SSW,199,5.0,12.0,40,0.00,,,0.00,0.000000,,2013-03-13 20:52:00,
2013-03-13 15:02:00,51.0,28.0,-100.00,SSW,199,5.0,12.0,40,0.00,,,0.00,0.000000,,2013-03-13 21:02:00,
2013-03-13 15:11:00,51.0,28.0,-100.00,SSW,199,5.0,12.0,40,0.00,,,0.00,0.000000,,2013-03-13 21:11:00,
2013-03-13 15:42:00,53.0,25.0,-100.00,West,261,3.0,11.0,34,0.00,,,0.00,0.000000,,2013-03-13 21:42:00,
2013-03-13 15:52:00,53.0,25.0,-100.00,West,261,3.0,11.0,34,0.00,,,0.00,0.000000,,2013-03-13 21:52:00,
2013-03-13 16:02:00,53.0,25.0,-100.00,West,261,3.0,11.0,34,0.00,,,0.00,0.000000,,2013-03-13 22:02:00,
2013-03-13 16:12:00,53.0,25.0,-100.00,West,261,3.0,11.0,34,0.00,,,0.00,0.000000,,2013-03-13 22:12:00,
2013-03-13 16:42:00,52.0,28.0,-100.00,SSW,198,7.0,13.0,39,0.00,,,0.00,0.000000,,2013-03-13 22:42:00,
2013-03-13 16:52:00,52.0,28.0,-100.00,SSW,198,7.0,13.0,39,0.00,,,0.00,0.000000,,2013-03-13 22:52:00,
2013-03-13 17:02:00,52.0,28.0,-100.00,SSW,198,7.0,13.0,39,0.00,,,0.00,0.000000,,2013-03-13 23:02:00,
2013-03-13 17:12:00,52.0,28.0,-100.00,SSW,198,7.0,13.0,39,0.00,,,0.00,0.000000,,2013-03-13 23:12:00,
2013-03-13 17:43:00,50.0,27.0,-100.00,SE,144,5.0,14.0,41,0.00,,,0.00,0.000000,,2013-03-13 23:43:00,
2013-03-13 17:52:00,50.0,27.0,-100.00,SE,144,5.0,14.0,41,0.00,,,0.00,0.000000,,2013-03-13 23:52:00,
2013-03-13 18:02:00,50.0,27.0,-100.00,SE,144,5.0,14.0,41,0.00,,,0.00,0.000000,,2013-03-14 00:02:00,
2013-03-13 18:12:00,50.0,27.0,-100.00,SE,144,5.0,14.0,41,0.00,,,0.00,0.000000,,2013-03-14 00:12:00,
2013-03-13 18:33:00,50.0,25.0,-100.00,South,169,5.0,10.0,37,0.00,,,0.00,0.000000,,2013-03-14 00:33:00,
2013-03-13 18:42:00,50.0,25.0,-100.00,South,169,5.0,10.0,37,0.00,,,0.00,0.000000,,2013-03-14 00:42:00,
2013-03-13 18:52:00,50.0,25.0,-100.00,South,169,5.0,10.0,37,0.00,,,0.00,0.000000,,2013-03-14 00:52:00,
2013-03-13 19:02:00,50.0,25.0,-100.00,South,169,5.0,10.0,37,0.00,,,0.00,0.000000,,2013-03-14 01:02:00,
2013-03-13 19:12:00,50.0,25.0,-100.00,South,169,5.0,10.0,37,0.00,,,0.00,0.000000,,2013-03-14 01:12:00,
2013-03-13 19:32:00,46.0,26.0,-100.00,SSE,162,6.0,8.0,46,0.00,,,0.00,0.000000,,2013-03-14 01:32:00,
2013-03-13 19:42:00,46.0,26.0,-100.00,SSE,162,6.0,8.0,46,0.00,,,0.00,0.000000,,2013-03-14 01:42:00,
2013-03-13 19:53:00,46.0,26.0,-100.00,SSE,162,6.0,8.0,46,0.00,,,0.00,0.000000,,2013-03-14 01:53:00,
2013-03-13 20:02:00,46.0,26.0,-100.00,SSE,162,6.0,8.0,46,0.00,,,0.00,0.000000,,2013-03-14 02:02:00,
2013-03-13 20:11:00,46.0,26.0,-100.00,SSE,162,6.0,8.0,46,0.00,,,0.00,0.000000,,2013-03-14 02:11:00,
2013-03-13 21:01:00,46.0,27.0,-100.00,SSE,156,4.0,8.0,47,0.00,,,-99.99,0.000000,,2013-03-14 03:01:00,
2013-03-13 21:12:00,46.0,27.0,-100.00,SSE,156,4.0,8.0,47,0.00,,,-99.99,0.000000,,2013-03-14 03:12:00,
2013-03-13 21:33:00,43.0,26.0,-100.00,SE,146,6.0,9.0,51,0.00,,,0.00,0.000000,,2013-03-14 03:33:00,
2013-03-13 21:42:00,43.0,26.0,-100.00,SE,146,6.0,9.0,51,0.00,,,0.00,0.000000,,2013-03-14 03:42:00,
2013-03-13 21:52:00,43.0,26.0,-100.00,SE,146,6.0,9.0,51,0.00,,,0.00,0.000000,,2013-03-14 03:52:00,
2013-03-13 22:11:00,43.0,26.0,-100.00,SE,146,6.0,9.0,51,0.00,,,0.00,0.000000,,2013-03-14 04:11:00,
2013-03-13 22:32:00,45.0,29.0,-100.00,South,174,10.0,16.0,54,0.00,,,0.00,0.000000,,2013-03-14 04:32:00,
2013-03-13 22:42:00,45.0,29.0,-100.00,South,174,10.0,16.0,54,0.00,,,0.00,0.000000,,2013-03-14 04:42:00,
2013-03-13 22:52:00,45.0,29.0,-100.00,South,174,10.0,16.0,54,0.00,,,0.00,0.000000,,2013-03-14 04:52:00,
2013-03-13 23:02:00,45.0,29.0,-100.00,South,174,10.0,16.0,54,0.00,,,0.00,0.000000,,2013-03-14 05:02:00,
2013-03-13 23:12:00,45.0,29.0,-100.00,South,174,10.0,16.0,54,0.00,,,0.00,0.000000,,2013-03-14 05:12:00,
2013-03-13 23:33:00,45.0,27.0,-100.00,SE,127,9.0,15.0,50,0.00,,,0.00,0.000000,,2013-03-14 05:33:00,
2013-03-13 23:42:00,45.0,27.0,-100.00,SE,127,9.0,15.0,50,0.00,,,0.00,0.000000,,2013-03-14 05:42:00,
2013-03-13 23:53:00,45.0,27.0,-100.00,SE,127,9.0,15.0,50,0.00,,,0.00,0.000000,,2013-03-14 05:53:00,